Time;durP1;ratioP1;P1;durP2;ratioP2;P2;SDS_P1;SDS_P2;PMS_P1;PMS_P2;Temp;Humidity;BMP_temperature;BMP_pressure;BME280_temperature;BME280_humidity;BME280_pressure;Samples;Min_cycle;Max_cycle;Signal;HPM_P1;HPM_P2
2022/02/28 00:00:11;;;;;;;3.47;3.10;;;6.60;99.90;;;;;;5032080;28;20189;-68
2022/02/28 00:02:39;;;;;;;6.53;3.38;;;6.60;99.90;;;;;;5014266;28;20280;-68
2022/02/28 00:05:10;;;;;;;4.05;3.42;;;6.60;99.90;;;;;;5031273;28;20209;-69
2022/02/28 00:07:38;;;;;;;8.30;3.50;;;6.60;99.90;;;;;;5031609;28;20627;-67
2022/02/28 00:10:07;;;;;;;3.15;2.85;;;6.60;99.90;;;;;;5032310;28;20263;-68
2022/02/28 00:12:36;;;;;;;2.72;2.53;;;6.60;99.90;;;;;;5031518;28;20231;-68
2022/02/28 00:15:07;;;;;;;3.13;2.70;;;6.60;99.90;;;;;;5031615;28;20243;-68
2022/02/28 00:17:36;;;;;;;3.90;2.83;;;6.60;99.90;;;;;;5031337;28;20213;-69
2022/02/28 00:20:06;;;;;;;3.97;3.47;;;6.60;99.90;;;;;;5031576;28;20276;-69
2022/02/28 00:22:36;;;;;;;3.80;3.42;;;6.60;99.90;;;;;;5031503;28;20236;-69
2022/02/28 00:25:05;;;;;;;3.72;2.70;;;6.60;99.90;;;;;;5031908;28;20193;-67
2022/02/28 00:27:34;;;;;;;3.65;2.55;;;6.50;99.90;;;;;;5028648;28;20282;-68
2022/02/28 00:30:02;;;;;;;4.25;3.13;;;6.50;99.90;;;;;;5031959;28;20220;-68
2022/02/28 00:32:30;;;;;;;3.70;3.30;;;6.50;99.90;;;;;;5030948;28;20275;-66
2022/02/28 00:34:58;;;;;;;2.95;2.60;;;6.50;99.90;;;;;;5030512;28;20595;-67
2022/02/28 00:37:28;;;;;;;6.78;3.30;;;6.50;99.90;;;;;;5024440;28;20280;-67
2022/02/28 00:39:57;;;;;;;3.92;3.35;;;6.50;99.90;;;;;;5022681;28;20595;-68
2022/02/28 00:42:25;;;;;;;3.22;2.92;;;6.50;99.90;;;;;;5031286;28;20236;-68
2022/02/28 00:44:53;;;;;;;2.72;2.53;;;6.50;99.90;;;;;;5030418;28;20189;-68
2022/02/28 00:47:21;;;;;;;2.80;2.60;;;6.50;99.90;;;;;;5030553;28;20637;-68
2022/02/28 00:49:52;;;;;;;3.25;2.83;;;6.50;99.90;;;;;;5029789;28;20193;-69
2022/02/28 00:52:20;;;;;;;4.57;3.60;;;6.50;99.90;;;;;;5031245;28;20242;-68
2022/02/28 00:54:53;;;;;;;3.45;3.15;;;6.50;99.90;;;;;;5030098;28;20201;-67
2022/02/28 00:57:23;;;;;;;3.70;3.40;;;6.50;99.90;;;;;;5031080;28;20234;-67
2022/02/28 00:59:51;;;;;;;4.07;3.67;;;6.50;99.90;;;;;;5030606;28;20193;-67
2022/02/28 01:02:20;;;;;;;3.30;2.90;;;6.50;99.90;;;;;;5029688;28;20225;-67
2022/02/28 01:04:49;;;;;;;3.03;2.70;;;6.40;99.90;;;;;;5030476;28;20903;-68
2022/02/28 01:07:17;;;;;;;2.67;2.47;;;6.50;99.90;;;;;;5030839;28;20229;-67
2022/02/28 01:09:47;;;;;;;4.00;3.15;;;6.50;99.90;;;;;;5029839;28;20212;-68
2022/02/28 01:12:16;;;;;;;3.30;3.00;;;6.50;99.90;;;;;;5030565;28;20229;-67
2022/02/28 01:14:45;;;;;;;3.80;2.72;;;6.50;99.90;;;;;;5026310;28;20609;-67
2022/02/28 01:17:13;;;;;;;3.42;2.45;;;6.50;99.90;;;;;;5025012;28;20225;-67
2022/02/28 01:19:42;;;;;;;3.88;2.70;;;6.50;99.90;;;;;;5029881;28;20663;-68
2022/02/28 01:22:11;;;;;;;3.92;3.50;;;6.50;99.90;;;;;;5030769;28;20232;-69
2022/02/28 01:24:39;;;;;;;3.60;3.30;;;6.40;99.90;;;;;;5028929;28;20201;-67
2022/02/28 01:27:08;;;;;;;3.58;3.28;;;6.40;99.90;;;;;;5030395;28;20887;-69
2022/02/28 01:29:36;;;;;;;3.28;2.88;;;6.40;99.90;;;;;;5023809;28;20288;-68
2022/02/28 01:32:06;;;;;;;3.28;2.70;;;6.40;99.90;;;;;;5030448;28;20299;-67
2022/02/28 01:34:34;;;;;;;3.78;2.65;;;6.40;99.90;;;;;;5028993;28;20192;-67
2022/02/28 01:37:03;;;;;;;4.90;3.28;;;6.40;99.90;;;;;;5030467;28;20221;-67
2022/02/28 01:39:34;;;;;;;3.55;3.22;;;6.40;99.90;;;;;;5030673;28;20201;-66
2022/02/28 01:42:03;;;;;;;3.28;2.97;;;6.40;99.90;;;;;;5016890;28;20252;-67
2022/02/28 01:44:31;;;;;;;2.72;2.42;;;6.40;99.90;;;;;;5029676;28;20228;-67
2022/02/28 01:47:02;;;;;;;3.03;2.65;;;6.40;99.90;;;;;;5028637;28;20300;-67
2022/02/28 01:49:31;;;;;;;5.07;3.80;;;6.40;99.90;;;;;;5028853;28;20251;-66
2022/02/28 01:52:00;;;;;;;3.90;3.00;;;6.40;99.90;;;;;;5014656;28;20271;-68
2022/02/28 01:54:28;;;;;;;3.30;3.00;;;6.40;99.90;;;;;;5029022;28;20575;-67
2022/02/28 01:56:57;;;;;;;2.63;2.40;;;6.40;99.90;;;;;;5029970;28;20312;-68
2022/02/28 01:59:25;;;;;;;2.78;2.53;;;6.40;99.90;;;;;;5029996;28;20189;-66
2022/02/28 02:01:53;;;;;;;3.38;2.88;;;6.40;99.90;;;;;;5032857;28;20283;-67
2022/02/28 02:04:22;;;;;;;3.28;2.67;;;6.40;99.90;;;;;;5033161;28;20658;-69
2022/02/28 02:06:52;;;;;;;2.70;2.45;;;6.40;99.90;;;;;;5033309;28;20225;-68
2022/02/28 02:09:21;;;;;;;5.45;3.30;;;6.40;99.90;;;;;;5034290;28;20193;-67
2022/02/28 02:11:50;;;;;;;3.88;3.17;;;6.40;99.90;;;;;;5032559;28;20698;-68
2022/02/28 02:14:19;;;;;;;3.60;3.08;;;6.40;99.90;;;;;;5032561;28;20280;-67
2022/02/28 02:16:49;;;;;;;3.35;2.85;;;6.40;99.90;;;;;;5029466;28;20221;-68
2022/02/28 02:19:17;;;;;;;3.40;2.80;;;6.40;99.90;;;;;;5028056;28;20193;-68
2022/02/28 02:21:47;;;;;;;4.55;2.50;;;6.40;99.90;;;;;;5043254;28;20311;-66
2022/02/28 02:24:15;;;;;;;3.50;2.85;;;6.40;99.90;;;;;;5052836;28;20219;-68
2022/02/28 02:26:44;;;;;;;3.78;3.08;;;6.40;99.90;;;;;;5052527;28;20694;-68
2022/02/28 02:29:12;;;;;;;3.67;3.28;;;6.40;99.90;;;;;;5054693;28;20664;-67
2022/02/28 02:31:40;;;;;;;3.78;2.85;;;6.30;99.90;;;;;;5050149;28;20230;-66
2022/02/28 02:34:11;;;;;;;4.20;3.20;;;6.30;99.90;;;;;;5052840;28;20216;-66
2022/02/28 02:36:41;;;;;;;3.75;2.83;;;6.30;99.90;;;;;;5043680;28;20220;-67
2022/02/28 02:39:11;;;;;;;2.97;2.63;;;6.30;99.90;;;;;;5032549;28;20691;-67
2022/02/28 02:41:39;;;;;;;3.05;2.75;;;6.40;99.90;;;;;;5033306;28;20224;-68
2022/02/28 02:44:07;;;;;;;2.70;2.40;;;6.40;99.90;;;;;;5033049;28;20185;-67
2022/02/28 02:46:45;;;;;;;5.57;3.05;;;6.30;99.90;;;;;;5031876;28;20225;-67
2022/02/28 02:49:21;;;;;;;2.42;2.22;;;6.30;99.90;;;;;;5032387;28;20213;-68
2022/02/28 02:51:50;;;;;;;3.28;2.60;;;6.30;99.90;;;;;;5031616;28;20225;-66
2022/02/28 02:54:21;;;;;;;3.13;2.55;;;6.30;99.90;;;;;;5017475;28;20292;-65
2022/02/28 02:56:50;;;;;;;2.45;2.22;;;6.40;99.90;;;;;;5031687;28;20271;-67
2022/02/28 02:59:19;;;;;;;3.28;2.70;;;6.40;99.90;;;;;;5032443;28;20731;-67
2022/02/28 03:01:48;;;;;;;2.90;2.65;;;6.40;99.90;;;;;;5021357;28;20252;-69
2022/02/28 03:04:17;;;;;;;3.40;3.10;;;6.40;99.90;;;;;;5028574;28;20204;-67
2022/02/28 03:06:46;;;;;;;3.13;2.70;;;6.40;99.90;;;;;;5031208;28;20233;-67
2022/02/28 03:09:15;;;;;;;3.25;2.50;;;6.40;99.90;;;;;;5018024;28;20206;-67
2022/02/28 03:11:46;;;;;;;2.78;2.58;;;6.40;99.90;;;;;;5020701;28;20315;-69
2022/02/28 03:14:17;;;;;;;3.85;2.95;;;6.40;99.90;;;;;;5031054;28;20197;-67
2022/02/28 03:16:45;;;;;;;3.00;2.75;;;6.40;99.90;;;;;;5029649;28;20235;-67
2022/02/28 03:19:13;;;;;;;2.83;2.42;;;6.40;99.90;;;;;;5047905;28;20383;-68
2022/02/28 03:21:47;;;;;;;2.97;2.10;;;6.40;99.90;;;;;;5027664;28;20276;-67
2022/02/28 03:24:15;;;;;;;3.45;2.60;;;6.30;99.90;;;;;;5019262;28;20776;-68
2022/02/28 03:26:44;;;;;;;3.38;2.30;;;6.30;99.90;;;;;;5030953;28;20449;-66
2022/02/28 03:29:12;;;;;;;3.10;2.80;;;6.30;99.90;;;;;;5032496;28;20718;-67
2022/02/28 03:31:41;;;;;;;5.82;2.85;;;6.30;99.90;;;;;;5032270;28;20247;-68
2022/02/28 03:34:10;;;;;;;2.30;2.10;;;6.30;99.90;;;;;;5028272;28;20251;-66
2022/02/28 03:36:38;;;;;;;2.85;2.22;;;6.30;99.90;;;;;;5040625;28;20690;-67
2022/02/28 03:39:13;;;;;;;3.00;2.80;;;6.30;99.90;;;;;;5049851;28;20203;-67
2022/02/28 03:41:41;;;;;;;2.60;2.40;;;6.30;99.90;;;;;;5041475;28;20232;-69
2022/02/28 03:44:11;;;;;;;2.55;2.33;;;6.30;99.90;;;;;;5030526;28;20193;-67
2022/02/28 03:46:41;;;;;;;3.00;2.75;;;6.30;99.90;;;;;;5030857;28;20225;-66
2022/02/28 03:49:17;;;;;;;3.85;2.47;;;6.30;99.90;;;;;;5032798;28;20215;-66
2022/02/28 03:52:00;;;;;;;2.63;2.42;;;6.30;99.90;;;;;;5023650;28;20309;-67
2022/02/28 03:54:47;;;;;;;5.45;3.03;;;6.30;99.90;;;;;;5032202;28;20203;-67
2022/02/28 03:57:15;;;;;;;2.65;2.45;;;6.20;99.90;;;;;;5031076;28;20224;-66
2022/02/28 03:59:45;;;;;;;2.38;2.15;;;6.20;99.90;;;;;;5031631;28;20220;-69
2022/02/28 04:02:13;;;;;;;2.78;2.58;;;6.20;99.90;;;;;;5031928;28;20228;-67
2022/02/28 04:04:46;;;;;;;3.15;2.85;;;6.20;99.90;;;;;;5023568;28;20198;-68
2022/02/28 04:07:15;;;;;;;3.05;2.80;;;6.20;99.90;;;;;;5030607;28;20227;-67
2022/02/28 04:09:43;;;;;;;3.40;2.83;;;6.20;99.90;;;;;;5030889;28;20213;-68
2022/02/28 04:12:12;;;;;;;3.00;2.70;;;6.20;99.90;;;;;;5028584;28;20225;-67
2022/02/28 04:14:43;;;;;;;2.70;2.35;;;6.20;99.90;;;;;;5026779;28;20241;-67
2022/02/28 04:17:15;;;;;;;3.92;2.33;;;6.20;99.90;;;;;;5011334;28;20226;-65
2022/02/28 04:20:10;;;;;;;2.70;2.42;;;6.20;99.90;;;;;;5019297;28;20297;-67
2022/02/28 04:22:38;;;;;;;3.20;2.88;;;6.20;99.90;;;;;;5015248;28;20226;-66
2022/02/28 04:25:08;;;;;;;3.17;2.70;;;6.20;99.90;;;;;;5021458;28;20220;-68
2022/02/28 04:27:37;;;;;;;3.33;2.97;;;6.20;99.90;;;;;;5043970;28;20278;-67
2022/02/28 04:30:08;;;;;;;3.08;2.78;;;6.20;99.90;;;;;;5050261;28;20224;-68
2022/02/28 04:32:38;;;;;;;2.58;2.38;;;6.20;99.90;;;;;;5049597;28;20227;-69
2022/02/28 04:35:09;;;;;;;2.95;2.47;;;6.20;99.90;;;;;;5049951;28;20669;-66
2022/02/28 04:37:41;;;;;;;3.90;3.00;;;6.20;99.90;;;;;;5048620;28;20229;-67
2022/02/28 04:40:14;;;;;;;2.55;2.35;;;6.20;99.90;;;;;;5050339;28;20262;-66
2022/02/28 04:42:42;;;;;;;4.88;3.28;;;6.20;99.90;;;;;;5036361;28;20583;-68
2022/02/28 04:45:11;;;;;;;3.45;2.63;;;6.20;99.90;;;;;;5049696;28;20275;-67
2022/02/28 04:47:41;;;;;;;3.25;2.60;;;6.20;99.90;;;;;;5049498;28;20220;-67
2022/02/28 04:50:18;;;;;;;3.10;2.80;;;6.10;99.90;;;;;;5050443;28;20617;-68
2022/02/28 04:52:46;;;;;;;3.00;2.60;;;6.10;99.90;;;;;;5039429;28;20235;-66
2022/02/28 04:55:16;;;;;;;3.05;2.45;;;6.20;99.90;;;;;;5044505;28;20662;-67
2022/02/28 04:57:45;;;;;;;4.15;2.63;;;6.20;99.90;;;;;;5049266;28;20252;-67
2022/02/28 05:00:31;;;;;;;2.55;2.35;;;6.10;99.90;;;;;;5041565;28;20217;-67
2022/02/28 05:03:01;;;;;;;4.00;2.90;;;6.10;99.90;;;;;;5030136;28;20300;-67
2022/02/28 05:05:30;;;;;;;4.20;2.70;;;6.10;99.90;;;;;;5042459;28;20240;-68
2022/02/28 05:07:58;;;;;;;2.88;2.35;;;6.10;99.90;;;;;;5043007;28;20232;-67
2022/02/28 05:10:26;;;;;;;3.58;2.90;;;6.10;99.90;;;;;;5051377;28;20617;-67
2022/02/28 05:13:08;;;;;;;3.05;2.53;;;6.10;99.90;;;;;;5039403;28;20216;-68
2022/02/28 05:15:37;;;;;;;3.10;2.35;;;6.10;99.90;;;;;;5050975;28;20201;-68
2022/02/28 05:18:07;;;;;;;3.05;2.50;;;6.10;99.90;;;;;;5049788;28;20280;-68
2022/02/28 05:20:36;;;;;;;2.47;2.28;;;6.10;99.90;;;;;;5049325;28;20244;-67
2022/02/28 05:23:04;;;;;;;4.35;3.50;;;6.10;99.90;;;;;;5049578;28;20270;-68
2022/02/28 05:25:33;;;;;;;4.00;3.20;;;6.10;99.90;;;;;;5049691;28;20238;-67
2022/02/28 05:28:21;;;;;;;3.42;2.40;;;6.10;99.90;;;;;;5048928;28;20278;-66
2022/02/28 05:30:49;;;;;;;2.97;2.55;;;6.10;99.90;;;;;;5034348;28;20220;-67
2022/02/28 05:33:21;;;;;;;2.80;2.55;;;6.10;99.90;;;;;;5040076;28;20185;-68
2022/02/28 05:35:53;;;;;;;2.90;2.70;;;6.10;99.90;;;;;;5040721;28;20184;-67
2022/02/28 05:38:32;;;;;;;4.93;3.28;;;6.10;99.90;;;;;;5049599;28;20203;-67
2022/02/28 05:41:04;;;;;;;2.72;2.50;;;6.10;99.90;;;;;;5048822;28;20682;-68
2022/02/28 05:43:37;;;;;;;3.13;2.83;;;6.00;99.90;;;;;;5046028;28;20204;-68
2022/02/28 05:46:10;;;;;;;2.45;2.25;;;6.10;99.90;;;;;;5047372;28;20227;-67
2022/02/28 05:48:48;;;;;;;3.17;2.47;;;6.00;99.90;;;;;;5049193;28;20737;-68
2022/02/28 05:51:20;;;;;;;2.65;2.42;;;6.00;99.90;;;;;;5048467;28;20255;-66
2022/02/28 05:53:49;;;;;;;2.95;2.67;;;6.00;99.90;;;;;;5050549;28;20189;-68
2022/02/28 05:56:17;;;;;;;3.45;3.13;;;6.00;99.90;;;;;;5049626;28;20274;-66
2022/02/28 05:58:45;;;;;;;3.47;2.75;;;6.00;99.90;;;;;;5050285;28;20275;-66
2022/02/28 06:01:13;;;;;;;4.32;3.22;;;6.00;99.90;;;;;;5049982;28;20228;-67
2022/02/28 06:03:41;;;;;;;3.22;2.47;;;6.00;99.90;;;;;;5089882;22;20306;-75
2022/02/28 06:06:11;;;;;;;3.55;3.13;;;6.00;99.90;;;;;;5043542;28;20681;-76
2022/02/28 06:08:39;;;;;;;4.05;3.47;;;6.00;99.90;;;;;;5038756;28;20720;-75
2022/02/28 06:11:07;;;;;;;3.85;2.72;;;6.00;99.90;;;;;;5049540;28;20231;-76
2022/02/28 06:13:35;;;;;;;4.13;3.72;;;5.90;99.90;;;;;;5067316;28;20249;-76
2022/02/28 06:16:05;;;;;;;4.80;3.70;;;5.90;99.90;;;;;;5062323;28;20235;-76
2022/02/28 06:18:33;;;;;;;4.93;3.55;;;5.90;99.90;;;;;;5070175;28;20556;-76
2022/02/28 06:21:02;;;;;;;5.97;3.03;;;5.90;99.90;;;;;;5033310;28;20220;-76
2022/02/28 06:23:31;;;;;;;3.97;3.53;;;5.90;99.90;;;;;;5058126;28;20602;-76
2022/02/28 06:25:59;;;;;;;3.42;3.00;;;5.90;99.90;;;;;;5069795;28;20261;-76
2022/02/28 06:28:31;;;;;;;5.15;3.50;;;5.90;99.90;;;;;;5047315;28;20208;-76
2022/02/28 06:30:59;;;;;;;3.67;3.35;;;5.90;99.90;;;;;;5054033;28;20273;-76
2022/02/28 06:33:28;;;;;;;5.13;3.47;;;5.90;99.90;;;;;;5063359;28;20671;-76
2022/02/28 06:35:56;;;;;;;3.30;2.95;;;5.90;99.90;;;;;;5050620;28;20232;-76
2022/02/28 06:38:26;;;;;;;4.30;3.30;;;5.90;99.90;;;;;;5050477;28;20197;-76
2022/02/28 06:40:56;;;;;;;3.33;2.90;;;5.80;99.90;;;;;;5052700;28;20212;-76
2022/02/28 06:43:26;;;;;;;4.45;3.63;;;5.80;99.90;;;;;;5039173;28;20292;-73
2022/02/28 06:45:58;;;;;;;3.88;3.03;;;5.90;99.90;;;;;;5045549;28;20194;-76
2022/02/28 06:48:28;;;;;;;3.47;3.17;;;5.80;99.90;;;;;;5069059;28;20197;-76
2022/02/28 06:50:56;;;;;;;4.05;3.33;;;5.80;99.90;;;;;;5041495;28;20248;-76
2022/02/28 06:53:25;;;;;;;4.47;3.25;;;5.80;99.90;;;;;;5034100;28;20551;-76
2022/02/28 06:55:54;;;;;;;3.80;2.85;;;5.80;99.90;;;;;;5053595;28;20199;-76
2022/02/28 06:58:22;;;;;;;3.78;3.22;;;5.80;99.90;;;;;;5071986;28;20196;-75
2022/02/28 07:00:51;;;;;;;4.65;2.95;;;5.80;99.90;;;;;;5053696;28;20216;-76
2022/02/28 07:03:48;;;;;;;5.40;3.20;;;5.80;99.90;;;;;;5047089;28;20279;-76
2022/02/28 07:06:20;;;;;;;4.15;3.00;;;5.80;99.90;;;;;;5066438;28;20277;-76
2022/02/28 07:08:48;;;;;;;5.15;4.10;;;5.80;99.90;;;;;;5071138;28;20203;-76
2022/02/28 07:11:18;;;;;;;4.93;3.47;;;5.80;99.90;;;;;;5064637;28;20215;-76
2022/02/28 07:13:46;;;;;;;4.22;3.40;;;5.80;99.90;;;;;;5057243;28;20189;-76
2022/02/28 07:16:17;;;;;;;4.25;3.40;;;5.80;99.90;;;;;;5034061;28;20229;-76
2022/02/28 07:18:45;;;;;;;5.25;3.75;;;5.70;99.90;;;;;;5071591;28;20603;-75
2022/02/28 07:21:13;;;;;;;4.05;3.65;;;5.70;99.90;;;;;;5062457;28;20223;-75
2022/02/28 07:23:41;;;;;;;3.95;3.65;;;5.70;99.90;;;;;;5055005;28;20197;-76
2022/02/28 07:26:10;;;;;;;3.90;3.53;;;5.70;99.90;;;;;;5064112;28;20227;-76
2022/02/28 07:28:39;;;;;;;4.55;3.70;;;5.70;99.90;;;;;;5057120;28;20283;-75
2022/02/28 07:31:27;;;;;;;4.63;4.03;;;5.70;99.90;;;;;;5054766;28;20318;-75
2022/02/28 07:33:55;;;;;;;4.35;3.70;;;5.70;99.90;;;;;;5056664;28;20196;-76
2022/02/28 07:36:23;;;;;;;4.55;3.90;;;5.70;99.90;;;;;;5063503;28;20757;-76
2022/02/28 07:38:52;;;;;;;4.43;4.03;;;5.70;99.90;;;;;;5053934;28;20216;-75
2022/02/28 07:41:20;;;;;;;6.75;4.47;;;5.70;99.90;;;;;;5059861;28;20231;-75
2022/02/28 07:43:49;;;;;;;4.75;3.97;;;5.70;99.90;;;;;;5060492;28;20188;-75
2022/02/28 07:46:18;;;;;;;3.63;3.33;;;5.70;99.90;;;;;;5052704;28;20588;-75
2022/02/28 07:48:47;;;;;;;5.38;4.22;;;5.70;99.90;;;;;;5072225;28;20184;-75
2022/02/28 07:51:17;;;;;;;4.88;3.92;;;5.70;99.90;;;;;;5052489;28;20697;-75
2022/02/28 07:53:45;;;;;;;9.57;3.85;;;5.70;99.90;;;;;;5054583;28;20200;-75
2022/02/28 07:56:13;;;;;;;4.55;3.88;;;5.70;99.90;;;;;;5060133;28;20723;-75
2022/02/28 07:58:41;;;;;;;5.60;4.40;;;5.70;99.90;;;;;;5048193;28;20193;-75
2022/02/28 08:01:11;;;;;;;4.35;3.80;;;5.70;99.90;;;;;;5065540;28;20311;-75
2022/02/28 08:03:39;;;;;;;3.97;3.58;;;5.70;99.90;;;;;;5063260;28;20304;-75
2022/02/28 08:06:07;;;;;;;5.00;4.30;;;5.70;99.90;;;;;;5056225;28;20614;-75
2022/02/28 08:08:35;;;;;;;4.50;3.42;;;5.70;99.90;;;;;;5063894;28;20577;-75
2022/02/28 08:11:04;;;;;;;3.65;3.35;;;5.80;99.90;;;;;;5071357;28;20276;-75
2022/02/28 08:13:32;;;;;;;4.85;4.43;;;5.80;99.90;;;;;;5041902;28;20211;-75
2022/02/28 08:16:01;;;;;;;4.43;3.75;;;5.80;99.90;;;;;;5068029;28;20230;-75
2022/02/28 08:18:31;;;;;;;6.55;4.10;;;5.80;99.90;;;;;;5067960;28;20215;-75
2022/02/28 08:20:59;;;;;;;4.75;3.65;;;5.80;99.90;;;;;;5063714;28;20242;-75
2022/02/28 08:23:28;;;;;;;4.45;4.05;;;5.90;99.90;;;;;;5063267;28;20192;-75
2022/02/28 08:25:56;;;;;;;5.10;3.75;;;5.90;99.90;;;;;;5054571;28;20687;-75
2022/02/28 08:28:31;;;;;;;3.38;3.08;;;5.90;99.90;;;;;;5056680;28;20192;-75
2022/02/28 08:30:59;;;;;;;4.85;3.63;;;5.90;99.90;;;;;;5051616;28;20223;-76
2022/02/28 08:33:27;;;;;;;4.20;3.33;;;5.90;99.90;;;;;;5052054;28;20197;-76
2022/02/28 08:35:56;;;;;;;3.22;2.92;;;5.90;99.90;;;;;;5040999;28;20205;-76
2022/02/28 08:38:27;;;;;;;4.70;3.47;;;6.00;99.90;;;;;;5030680;28;20208;-75
2022/02/28 08:40:55;;;;;;;3.40;3.10;;;6.00;99.90;;;;;;5031229;28;20216;-76
2022/02/28 08:43:23;;;;;;;4.57;3.88;;;6.00;99.90;;;;;;5033931;28;20197;-76
2022/02/28 08:45:51;;;;;;;4.28;3.80;;;6.00;99.90;;;;;;5049887;28;20180;-76
2022/02/28 08:48:20;;;;;;;5.10;3.70;;;6.00;99.90;;;;;;5064952;28;20283;-72
2022/02/28 08:50:49;;;;;;;4.82;3.70;;;6.00;99.90;;;;;;5058582;28;20597;-72
2022/02/28 08:53:21;;;;;;;5.75;3.70;;;6.00;99.90;;;;;;5065898;28;20192;-72
2022/02/28 08:55:49;;;;;;;4.88;3.60;;;6.00;99.90;;;;;;5058395;28;20257;-72
2022/02/28 08:58:17;;;;;;;3.95;3.55;;;6.10;99.90;;;;;;5057392;28;20188;-72
2022/02/28 09:00:46;;;;;;;5.28;3.80;;;6.10;99.90;;;;;;5052989;28;20216;-72
2022/02/28 09:03:14;;;;;;;4.65;3.35;;;6.10;99.90;;;;;;5064998;28;20277;-71
2022/02/28 09:05:42;;;;;;;4.10;3.70;;;6.10;99.90;;;;;;5052384;28;20610;-72
2022/02/28 09:08:11;;;;;;;4.15;3.22;;;6.10;99.90;;;;;;5067064;28;20691;-72
2022/02/28 09:10:40;;;;;;;5.22;3.80;;;6.10;99.90;;;;;;5067569;28;20253;-72
2022/02/28 09:13:08;;;;;;;4.35;3.88;;;6.10;99.90;;;;;;5067360;28;20238;-71
2022/02/28 09:15:36;;;;;;;4.57;3.80;;;6.10;99.90;;;;;;5055272;28;20203;-72
2022/02/28 09:18:07;;;;;;;4.32;3.47;;;6.20;99.90;;;;;;5054966;28;20682;-72
2022/02/28 09:20:35;;;;;;;4.95;4.45;;;6.20;99.90;;;;;;5068901;28;20219;-72
2022/02/28 09:23:04;;;;;;;7.75;3.92;;;6.20;99.90;;;;;;5058160;28;20208;-72
2022/02/28 09:25:33;;;;;;;4.88;4.30;;;6.20;99.90;;;;;;5067324;28;20569;-72
2022/02/28 09:28:02;;;;;;;4.88;4.07;;;6.20;99.90;;;;;;5048921;28;20295;-72
2022/02/28 09:30:31;;;;;;;4.95;4.10;;;6.20;99.90;;;;;;5057661;28;20286;-71
2022/02/28 09:33:01;;;;;;;5.07;4.57;;;6.20;99.90;;;;;;5056990;28;20266;-71
2022/02/28 09:35:29;;;;;;;4.72;3.95;;;6.20;99.90;;;;;;5051371;28;20208;-71
2022/02/28 09:38:07;;;;;;;6.40;3.75;;;6.20;99.90;;;;;;5056008;28;20269;-71
2022/02/28 09:40:36;;;;;;;6.03;4.30;;;6.20;99.90;;;;;;5051138;28;20208;-71
2022/02/28 09:43:42;;;;;;;5.50;4.05;;;6.20;99.90;;;;;;5040764;28;20221;-71
2022/02/28 09:46:29;;;;;;;4.18;3.75;;;6.20;99.90;;;;;;5069029;28;20223;-71
2022/02/28 09:49:04;;;;;;;4.35;3.65;;;6.20;99.90;;;;;;5058462;28;20196;-71
2022/02/28 09:52:02;;;;;;;4.55;3.75;;;6.20;99.90;;;;;;5017620;28;20220;-72
2022/02/28 09:55:03;;;;;;;6.95;4.30;;;6.20;99.90;;;;;;5055321;28;20192;-71
2022/02/28 09:57:52;;;;;;;4.53;4.07;;;6.20;99.90;;;;;;5064395;28;20602;-71
2022/02/28 10:00:57;;;;;;;9.38;3.92;;;6.20;99.90;;;;;;5039892;28;20689;-71
2022/02/28 10:03:25;;;;;;;4.97;4.00;;;6.30;99.90;;;;;;5049446;28;20250;-71
2022/02/28 10:05:59;;;;;;;4.70;4.20;;;6.20;99.90;;;;;;5044932;28;20197;-71
2022/02/28 10:08:39;;;;;;;4.78;4.25;;;6.30;99.90;;;;;;5030663;28;20232;-71
2022/02/28 10:11:23;;;;;;;5.35;4.03;;;6.20;99.90;;;;;;5052136;28;20228;-75
2022/02/28 10:13:52;;;;;;;5.72;4.60;;;6.20;99.90;;;;;;5048881;28;20201;-75
2022/02/28 10:16:36;;;;;;;4.65;4.22;;;6.20;99.90;;;;;;5039820;28;20231;-75
2022/02/28 10:19:06;;;;;;;4.75;4.25;;;6.20;99.90;;;;;;5054438;28;20188;-75
2022/02/28 10:21:39;;;;;;;4.45;4.05;;;6.30;99.90;;;;;;5055943;28;20323;-75
2022/02/28 10:24:08;;;;;;;6.10;4.65;;;6.30;99.90;;;;;;5058081;28;20192;-75
2022/02/28 10:26:55;;;;;;;4.53;4.13;;;6.30;99.90;;;;;;5069572;28;20218;-75
2022/02/28 10:29:42;;;;;;;6.22;4.72;;;6.20;99.90;;;;;;5051120;28;20209;-75
2022/02/28 10:32:27;;;;;;;5.60;4.80;;;6.20;99.90;;;;;;5057639;28;20589;-76
2022/02/28 10:38:25;;;;;;;4.65;4.22;;;6.30;99.90;;;;;;5049797;28;20224;-76
2022/02/28 10:40:54;;;;;;;5.18;4.35;;;6.20;99.90;;;;;;5053542;28;20582;-75
2022/02/28 10:43:26;;;;;;;4.68;3.70;;;6.20;99.90;;;;;;5051174;28;20547;-75
2022/02/28 10:45:57;;;;;;;4.13;3.72;;;6.20;99.90;;;;;;5056018;28;20860;-75
2022/02/28 10:48:27;;;;;;;6.88;5.40;;;6.20;99.90;;;;;;5065301;28;20720;-80
2022/02/28 10:50:55;;;;;;;6.53;5.05;;;6.20;99.90;;;;;;5051326;28;20220;-76
2022/02/28 10:53:24;;;;;;;8.32;4.60;;;6.20;99.90;;;;;;5054810;28;20235;-75
2022/02/28 10:55:53;;;;;;;6.03;4.18;;;6.20;99.90;;;;;;5064815;28;20203;-76
2022/02/28 10:58:24;;;;;;;5.97;5.07;;;6.30;99.90;;;;;;5048193;28;20625;-76
2022/02/28 11:00:58;;;;;;;6.80;3.95;;;6.30;99.90;;;;;;5047842;28;20223;-75
2022/02/28 11:03:42;;;;;;;7.07;4.47;;;6.30;99.90;;;;;;5053737;28;20197;-75
2022/02/28 11:06:12;;;;;;;5.80;4.75;;;6.20;99.90;;;;;;5039153;28;20224;-75
2022/02/28 11:08:44;;;;;;;7.55;5.00;;;6.20;99.90;;;;;;5033792;28;20193;-75
2022/02/28 11:11:14;;;;;;;5.63;4.35;;;6.30;99.90;;;;;;5033196;28;20275;-75
2022/02/28 11:13:46;;;;;;;5.38;4.40;;;6.20;99.90;;;;;;5033778;28;20217;-75
2022/02/28 11:16:14;;;;;;;5.88;5.00;;;6.20;99.90;;;;;;5048742;28;20229;-75
2022/02/28 11:18:44;;;;;;;4.65;3.65;;;6.20;99.90;;;;;;5033601;28;20189;-75
2022/02/28 11:21:13;;;;;;;5.30;4.47;;;6.20;99.90;;;;;;5062657;28;20227;-75
2022/02/28 11:23:44;;;;;;;6.70;4.80;;;6.20;99.90;;;;;;5063804;28;20188;-75
2022/02/28 11:26:13;;;;;;;5.13;4.63;;;6.20;99.90;;;;;;5052533;28;20224;-75
2022/02/28 11:28:41;;;;;;;4.97;4.47;;;6.20;99.90;;;;;;5049744;28;20239;-75
2022/02/28 11:31:13;;;;;;;5.63;4.25;;;6.20;99.90;;;;;;5067383;28;20232;-75
2022/02/28 11:34:03;;;;;;;5.28;4.25;;;6.20;99.90;;;;;;5066329;28;20218;-75
2022/02/28 11:36:46;;;;;;;5.97;4.93;;;6.20;99.90;;;;;;5061745;28;20223;-75
2022/02/28 11:39:15;;;;;;;5.25;4.30;;;6.20;99.90;;;;;;5063247;28;20558;-75
2022/02/28 11:41:43;;;;;;;6.30;4.25;;;6.20;99.90;;;;;;5060768;28;20235;-75
2022/02/28 11:44:17;;;;;;;4.38;3.97;;;6.20;99.90;;;;;;5066247;28;20603;-75
2022/02/28 11:46:47;;;;;;;4.43;4.00;;;6.20;99.90;;;;;;5062612;28;20687;-75
2022/02/28 11:49:42;;;;;;;6.55;4.50;;;6.20;99.90;;;;;;5059683;28;20191;-75
2022/02/28 11:52:32;;;;;;;5.57;4.95;;;6.20;99.90;;;;;;5052528;28;20227;-71
2022/02/28 11:55:09;;;;;;;4.63;4.20;;;6.20;99.90;;;;;;5052132;28;20673;-71
2022/02/28 11:57:51;;;;;;;4.30;3.63;;;6.20;99.90;;;;;;5048110;28;20346;-71
2022/02/28 12:00:21;;;;;;;5.55;3.92;;;6.20;99.90;;;;;;5032797;28;20247;-71
2022/02/28 12:02:50;;;;;;;4.40;4.00;;;6.20;99.90;;;;;;5058515;28;20215;-71
2022/02/28 12:05:39;;;;;;;4.50;4.10;;;6.20;99.90;;;;;;5055691;28;20192;-71
2022/02/28 12:08:11;;;;;;;5.43;4.93;;;6.20;99.90;;;;;;5056057;28;20689;-71
2022/02/28 12:10:43;;;;;;;4.80;3.78;;;6.20;99.90;;;;;;5052560;28;20209;-71
2022/02/28 12:13:11;;;;;;;5.10;4.00;;;6.20;99.90;;;;;;5051012;28;20563;-71
2022/02/28 12:15:40;;;;;;;4.25;3.85;;;6.20;99.90;;;;;;5054207;28;20184;-71
2022/02/28 12:18:10;;;;;;;4.82;4.38;;;6.20;99.90;;;;;;5052189;28;20232;-71
2022/02/28 12:20:43;;;;;;;5.85;4.05;;;6.20;99.90;;;;;;5051188;28;20224;-71
2022/02/28 12:23:15;;;;;;;6.80;4.45;;;6.20;99.90;;;;;;5062356;28;20208;-71
2022/02/28 12:25:45;;;;;;;5.13;4.20;;;6.20;99.90;;;;;;5050152;28;20195;-72
2022/02/28 12:28:20;;;;;;;4.90;3.92;;;6.20;99.90;;;;;;5051455;28;20605;-71
2022/02/28 12:30:51;;;;;;;5.88;4.40;;;6.30;99.90;;;;;;5037391;28;20216;-71
2022/02/28 12:33:23;;;;;;;4.13;3.72;;;6.20;99.90;;;;;;5052082;28;20270;-71
2022/02/28 12:35:56;;;;;;;5.75;4.70;;;6.20;99.90;;;;;;5043493;28;20189;-72
2022/02/28 12:38:26;;;;;;;5.68;4.43;;;6.20;99.90;;;;;;5068242;28;20183;-71
2022/02/28 12:40:56;;;;;;;4.53;4.00;;;6.20;99.90;;;;;;5050728;28;20680;-72
2022/02/28 12:43:25;;;;;;;6.10;5.05;;;6.20;99.90;;;;;;5057056;28;20194;-71
2022/02/28 12:45:56;;;;;;;4.63;4.22;;;6.20;99.90;;;;;;5061735;28;20705;-72
2022/02/28 12:48:29;;;;;;;4.65;4.15;;;6.20;99.90;;;;;;5055127;28;20249;-71
2022/02/28 12:51:00;;;;;;;4.50;4.03;;;6.30;99.90;;;;;;5050464;28;20215;-71
2022/02/28 12:53:29;;;;;;;5.78;3.92;;;6.30;99.90;;;;;;5053988;28;20608;-71
2022/02/28 12:56:00;;;;;;;7.32;4.70;;;6.30;99.90;;;;;;5052238;28;20246;-71
2022/02/28 12:58:30;;;;;;;7.55;5.07;;;6.20;99.90;;;;;;5064961;28;20188;-72
2022/02/28 13:01:07;;;;;;;8.48;5.60;;;6.20;99.90;;;;;;5051416;28;20287;-71
2022/02/28 13:03:37;;;;;;;5.85;4.72;;;6.30;99.90;;;;;;5067415;28;20265;-71
2022/02/28 13:06:08;;;;;;;6.28;4.82;;;6.30;99.90;;;;;;5056704;28;20274;-71
2022/02/28 13:08:39;;;;;;;6.70;4.85;;;6.30;99.90;;;;;;5057984;28;20701;-72
2022/02/28 13:11:09;;;;;;;6.10;4.47;;;6.30;99.90;;;;;;5060257;28;20250;-71
2022/02/28 13:13:37;;;;;;;6.55;4.50;;;6.30;99.90;;;;;;5054979;28;20250;-72
2022/02/28 13:16:06;;;;;;;5.05;4.55;;;6.30;99.90;;;;;;5059896;28;20220;-72
2022/02/28 13:18:35;;;;;;;5.40;4.35;;;6.30;99.90;;;;;;5056607;28;20219;-70
2022/02/28 13:21:04;;;;;;;5.90;4.45;;;6.30;99.90;;;;;;5051141;28;20601;-71